sensor_id;sensor_type;location;lat;lon;timestamp;pressure;altitude;pressure_sealevel;temperature;humidity
10006;BME280;5042;42.626;23.382;2023-05-25T00:02:11;94321.06;;;15.53;100.00
10006;BME280;5042;42.626;23.382;2023-05-25T00:04:39;94317.97;;;15.56;100.00
10006;BME280;5042;42.626;23.382;2023-05-25T00:07:06;94297.81;;;15.24;100.00
10006;BME280;5042;42.626;23.382;2023-05-25T00:09:33;94334.06;;;15.36;100.00
10006;BME280;5042;42.626;23.382;2023-05-25T00:12:02;94339.41;;;15.29;100.00
10006;BME280;5042;42.626;23.382;2023-05-25T00:14:29;94343.44;;;15.32;100.00
10006;BME280;5042;42.626;23.382;2023-05-25T00:16:56;94331.69;;;15.27;100.00
10006;BME280;5042;42.626;23.382;2023-05-25T00:19:23;94340.50;;;15.40;100.00
10006;BME280;5042;42.626;23.382;2023-05-25T00:21:50;94334.06;;;15.54;100.00
10006;BME280;5042;42.626;23.382;2023-05-25T00:24:17;94344.69;;;15.66;100.00
10006;BME280;5042;42.626;23.382;2023-05-25T00:26:43;94338.31;;;15.55;100.00
10006;BME280;5042;42.626;23.382;2023-05-25T00:29:11;94349.69;;;15.37;100.00
10006;BME280;5042;42.626;23.382;2023-05-25T00:31:39;94346.81;;;15.20;100.00
10006;BME280;5042;42.626;23.382;2023-05-25T00:34:06;94356.63;;;15.13;100.00
10006;BME280;5042;42.626;23.382;2023-05-25T00:36:32;94358.38;;;15.01;100.00
10006;BME280;5042;42.626;23.382;2023-05-25T00:38:59;94350.56;;;14.88;100.00
10006;BME280;5042;42.626;23.382;2023-05-25T00:41:27;94359.50;;;14.87;100.00
10006;BME280;5042;42.626;23.382;2023-05-25T00:43:53;94347.13;;;14.87;100.00
10006;BME280;5042;42.626;23.382;2023-05-25T00:46:22;94352.78;;;14.91;100.00
10006;BME280;5042;42.626;23.382;2023-05-25T00:48:51;94354.53;;;14.97;100.00
10006;BME280;5042;42.626;23.382;2023-05-25T00:51:20;94362.03;;;15.00;100.00
10006;BME280;5042;42.626;23.382;2023-05-25T00:53:46;94364.59;;;15.06;100.00
10006;BME280;5042;42.626;23.382;2023-05-25T00:56:17;94347.69;;;15.14;100.00
10006;BME280;5042;42.626;23.382;2023-05-25T00:58:45;94353.38;;;15.11;100.00
10006;BME280;5042;42.626;23.382;2023-05-25T01:01:15;94350.28;;;14.96;100.00
10006;BME280;5042;42.626;23.382;2023-05-25T01:03:47;94352.34;;;14.94;100.00
10006;BME280;5042;42.626;23.382;2023-05-25T01:06:19;94292.63;;;14.42;100.00
10006;BME280;5042;42.626;23.382;2023-05-25T01:08:51;94356.00;;;14.93;100.00
10006;BME280;5042;42.626;23.382;2023-05-25T01:11:25;94360.78;;;14.77;100.00
10006;BME280;5042;42.626;23.382;2023-05-25T01:13:53;94359.94;;;14.58;100.00
10006;BME280;5042;42.626;23.382;2023-05-25T01:16:20;94359.13;;;14.26;100.00
10006;BME280;5042;42.626;23.382;2023-05-25T01:18:49;94361.59;;;14.14;100.00
10006;BME280;5042;42.626;23.382;2023-05-25T01:21:20;94366.66;;;14.16;100.00
10006;BME280;5042;42.626;23.382;2023-05-25T01:23:52;94358.53;;;14.17;100.00
10006;BME280;5042;42.626;23.382;2023-05-25T01:26:23;94366.25;;;14.19;100.00
10006;BME280;5042;42.626;23.382;2023-05-25T01:28:53;94360.28;;;14.30;100.00
10006;BME280;5042;42.626;23.382;2023-05-25T01:31:21;94357.59;;;14.37;100.00
10006;BME280;5042;42.626;23.382;2023-05-25T01:33:49;94344.44;;;14.37;100.00
10006;BME280;5042;42.626;23.382;2023-05-25T01:36:18;94350.84;;;14.48;100.00
10006;BME280;5042;42.626;23.382;2023-05-25T01:38:45;94346.16;;;14.50;100.00
10006;BME280;5042;42.626;23.382;2023-05-25T01:41:12;94339.66;;;14.52;100.00
10006;BME280;5042;42.626;23.382;2023-05-25T01:43:39;94341.47;;;14.58;100.00
10006;BME280;5042;42.626;23.382;2023-05-25T01:46:12;94337.38;;;14.62;100.00
10006;BME280;5042;42.626;23.382;2023-05-25T01:48:47;94342.38;;;14.71;100.00
10006;BME280;5042;42.626;23.382;2023-05-25T01:51:24;94332.56;;;14.78;100.00
10006;BME280;5042;42.626;23.382;2023-05-25T01:54:17;94330.88;;;14.90;100.00
10006;BME280;5042;42.626;23.382;2023-05-25T01:56:45;94331.78;;;14.46;100.00
10006;BME280;5042;42.626;23.382;2023-05-25T01:59:15;94334.34;;;13.95;100.00
10006;BME280;5042;42.626;23.382;2023-05-25T02:01:45;94327.31;;;13.76;100.00
10006;BME280;5042;42.626;23.382;2023-05-25T02:04:13;94301.97;;;13.36;100.00
10006;BME280;5042;42.626;23.382;2023-05-25T02:06:42;94339.97;;;13.61;100.00
10006;BME280;5042;42.626;23.382;2023-05-25T02:09:08;94343.56;;;13.66;100.00
10006;BME280;5042;42.626;23.382;2023-05-25T02:11:35;94340.13;;;13.66;100.00
10006;BME280;5042;42.626;23.382;2023-05-25T02:14:02;94342.63;;;13.47;100.00
10006;BME280;5042;42.626;23.382;2023-05-25T02:16:28;94351.97;;;13.43;100.00
10006;BME280;5042;42.626;23.382;2023-05-25T02:18:55;94348.31;;;13.51;100.00
10006;BME280;5042;42.626;23.382;2023-05-25T02:21:23;94349.53;;;13.48;100.00
10006;BME280;5042;42.626;23.382;2023-05-25T02:23:51;94350.97;;;13.44;100.00
10006;BME280;5042;42.626;23.382;2023-05-25T02:26:19;94355.41;;;13.44;100.00
10006;BME280;5042;42.626;23.382;2023-05-25T02:28:46;94354.00;;;13.41;100.00
10006;BME280;5042;42.626;23.382;2023-05-25T02:31:12;94354.19;;;13.46;100.00
10006;BME280;5042;42.626;23.382;2023-05-25T02:33:40;94363.09;;;13.45;100.00
10006;BME280;5042;42.626;23.382;2023-05-25T02:36:07;94367.16;;;13.48;100.00
10006;BME280;5042;42.626;23.382;2023-05-25T02:38:34;94368.94;;;13.54;100.00
10006;BME280;5042;42.626;23.382;2023-05-25T02:41:02;94372.19;;;13.49;100.00
10006;BME280;5042;42.626;23.382;2023-05-25T02:43:29;94376.06;;;13.40;100.00
10006;BME280;5042;42.626;23.382;2023-05-25T02:45:56;94378.31;;;13.43;100.00
10006;BME280;5042;42.626;23.382;2023-05-25T02:48:23;94384.56;;;13.42;100.00
10006;BME280;5042;42.626;23.382;2023-05-25T02:50:50;94385.38;;;13.43;100.00
10006;BME280;5042;42.626;23.382;2023-05-25T02:53:17;94389.22;;;13.47;100.00
10006;BME280;5042;42.626;23.382;2023-05-25T02:55:43;94390.69;;;13.36;100.00
10006;BME280;5042;42.626;23.382;2023-05-25T02:58:11;94396.97;;;13.28;100.00
10006;BME280;5042;42.626;23.382;2023-05-25T03:00:38;94396.75;;;13.16;100.00
10006;BME280;5042;42.626;23.382;2023-05-25T03:03:07;94400.22;;;13.17;100.00
10006;BME280;5042;42.626;23.382;2023-05-25T03:05:33;94398.97;;;13.13;100.00
10006;BME280;5042;42.626;23.382;2023-05-25T03:08:00;94398.19;;;13.12;100.00
10006;BME280;5042;42.626;23.382;2023-05-25T03:10:27;94400.59;;;13.14;100.00
10006;BME280;5042;42.626;23.382;2023-05-25T03:12:54;94399.97;;;13.19;100.00
10006;BME280;5042;42.626;23.382;2023-05-25T03:15:22;94400.78;;;13.19;100.00
10006;BME280;5042;42.626;23.382;2023-05-25T03:17:49;94399.59;;;13.28;100.00
10006;BME280;5042;42.626;23.382;2023-05-25T03:20:15;94400.59;;;13.34;100.00
10006;BME280;5042;42.626;23.382;2023-05-25T03:22:42;94402.63;;;13.19;100.00
10006;BME280;5042;42.626;23.382;2023-05-25T03:25:09;94406.69;;;13.08;100.00
10006;BME280;5042;42.626;23.382;2023-05-25T03:27:37;94403.03;;;13.02;100.00
10006;BME280;5042;42.626;23.382;2023-05-25T03:30:05;94407.50;;;12.88;100.00
10006;BME280;5042;42.626;23.382;2023-05-25T03:32:33;94407.50;;;12.75;100.00
10006;BME280;5042;42.626;23.382;2023-05-25T03:35:00;94418.22;;;12.73;100.00
10006;BME280;5042;42.626;23.382;2023-05-25T03:37:27;94422.06;;;12.84;100.00
10006;BME280;5042;42.626;23.382;2023-05-25T03:39:53;94422.25;;;12.83;100.00
10006;BME280;5042;42.626;23.382;2023-05-25T03:42:20;94413.97;;;12.72;100.00
10006;BME280;5042;42.626;23.382;2023-05-25T03:44:47;94413.56;;;12.76;100.00
10006;BME280;5042;42.626;23.382;2023-05-25T03:47:14;94366.59;;;12.59;100.00
10006;BME280;5042;42.626;23.382;2023-05-25T03:49:42;94424.69;;;13.18;100.00
10006;BME280;5042;42.626;23.382;2023-05-25T03:52:08;94415.19;;;13.30;100.00
10006;BME280;5042;42.626;23.382;2023-05-25T03:54:35;94419.00;;;13.21;100.00
10006;BME280;5042;42.626;23.382;2023-05-25T03:57:02;94415.56;;;13.27;100.00
10006;BME280;5042;42.626;23.382;2023-05-25T03:59:29;94422.66;;;13.33;100.00
10006;BME280;5042;42.626;23.382;2023-05-25T04:01:56;94416.38;;;13.47;100.00
10006;BME280;5042;42.626;23.382;2023-05-25T04:04:23;94422.59;;;13.66;100.00
10006;BME280;5042;42.626;23.382;2023-05-25T04:06:51;94416.63;;;13.97;100.00
10006;BME280;5042;42.626;23.382;2023-05-25T04:09:18;94404.75;;;14.20;100.00
10006;BME280;5042;42.626;23.382;2023-05-25T04:11:45;94427.63;;;14.71;100.00
10006;BME280;5042;42.626;23.382;2023-05-25T04:14:12;94423.34;;;15.02;100.00
10006;BME280;5042;42.626;23.382;2023-05-25T04:16:39;94434.00;;;15.39;100.00
10006;BME280;5042;42.626;23.382;2023-05-25T04:19:06;94435.09;;;15.75;100.00
10006;BME280;5042;42.626;23.382;2023-05-25T04:21:32;94433.91;;;16.26;100.00
10006;BME280;5042;42.626;23.382;2023-05-25T04:24:01;94432.66;;;16.59;100.00
10006;BME280;5042;42.626;23.382;2023-05-25T04:26:27;94439.47;;;16.97;100.00
10006;BME280;5042;42.626;23.382;2023-05-25T04:28:56;94432.63;;;17.43;100.00
10006;BME280;5042;42.626;23.382;2023-05-25T04:31:23;94438.69;;;18.02;100.00
10006;BME280;5042;42.626;23.382;2023-05-25T04:33:51;94447.94;;;18.40;100.00
10006;BME280;5042;42.626;23.382;2023-05-25T04:36:20;94379.22;;;18.27;100.00
10006;BME280;5042;42.626;23.382;2023-05-25T04:38:47;94458.59;;;19.31;100.00
10006;BME280;5042;42.626;23.382;2023-05-25T04:41:17;94458.63;;;19.65;100.00
10006;BME280;5042;42.626;23.382;2023-05-25T04:43:44;94461.31;;;20.04;100.00
10006;BME280;5042;42.626;23.382;2023-05-25T04:46:11;94461.19;;;20.38;100.00
10006;BME280;5042;42.626;23.382;2023-05-25T04:48:41;94457.97;;;20.80;100.00
10006;BME280;5042;42.626;23.382;2023-05-25T04:51:08;94459.66;;;21.18;100.00
10006;BME280;5042;42.626;23.382;2023-05-25T04:53:36;94469.22;;;21.41;100.00
10006;BME280;5042;42.626;23.382;2023-05-25T04:56:02;94459.59;;;21.72;100.00
10006;BME280;5042;42.626;23.382;2023-05-25T04:58:31;94462.13;;;21.94;99.19
10006;BME280;5042;42.626;23.382;2023-05-25T05:00:58;94468.72;;;22.24;92.77
10006;BME280;5042;42.626;23.382;2023-05-25T05:03:24;94457.03;;;22.35;95.92
10006;BME280;5042;42.626;23.382;2023-05-25T05:05:51;94457.50;;;22.22;96.23
10006;BME280;5042;42.626;23.382;2023-05-25T05:08:18;94451.00;;;22.13;96.86
10006;BME280;5042;42.626;23.382;2023-05-25T05:10:45;94450.25;;;22.17;97.37
10006;BME280;5042;42.626;23.382;2023-05-25T05:13:12;94451.28;;;21.69;100.00
10006;BME280;5042;42.626;23.382;2023-05-25T05:15:40;94444.56;;;21.29;100.00
10006;BME280;5042;42.626;23.382;2023-05-25T05:18:07;94449.00;;;21.45;100.00
10006;BME280;5042;42.626;23.382;2023-05-25T05:20:34;94449.31;;;21.96;100.00
10006;BME280;5042;42.626;23.382;2023-05-25T05:23:00;94453.13;;;22.11;100.00
10006;BME280;5042;42.626;23.382;2023-05-25T05:25:27;94454.56;;;21.76;100.00
10006;BME280;5042;42.626;23.382;2023-05-25T05:27:54;94452.78;;;21.54;100.00
10006;BME280;5042;42.626;23.382;2023-05-25T05:30:21;94460.34;;;21.35;100.00
10006;BME280;5042;42.626;23.382;2023-05-25T05:32:49;94467.97;;;21.22;100.00
10006;BME280;5042;42.626;23.382;2023-05-25T05:35:16;94438.19;;;20.98;100.00
10006;BME280;5042;42.626;23.382;2023-05-25T05:37:44;94470.19;;;21.62;100.00
10006;BME280;5042;42.626;23.382;2023-05-25T05:40:12;94475.00;;;22.02;100.00
10006;BME280;5042;42.626;23.382;2023-05-25T05:42:39;94467.94;;;22.23;97.60
10006;BME280;5042;42.626;23.382;2023-05-25T05:45:07;94476.88;;;22.07;94.96
10006;BME280;5042;42.626;23.382;2023-05-25T05:47:34;94477.44;;;21.67;99.85
10006;BME280;5042;42.626;23.382;2023-05-25T05:50:02;94473.34;;;21.00;100.00
10006;BME280;5042;42.626;23.382;2023-05-25T05:52:29;94478.59;;;20.89;100.00
10006;BME280;5042;42.626;23.382;2023-05-25T05:54:56;94467.56;;;21.08;100.00
10006;BME280;5042;42.626;23.382;2023-05-25T05:57:23;94480.91;;;22.10;100.00
10006;BME280;5042;42.626;23.382;2023-05-25T05:59:50;94481.09;;;22.40;97.73
10006;BME280;5042;42.626;23.382;2023-05-25T06:02:16;94486.66;;;23.02;100.00
10006;BME280;5042;42.626;23.382;2023-05-25T06:04:43;94489.38;;;23.58;93.42
10006;BME280;5042;42.626;23.382;2023-05-25T06:07:11;94489.66;;;24.03;91.06
10006;BME280;5042;42.626;23.382;2023-05-25T06:09:38;94485.28;;;24.38;89.41
10006;BME280;5042;42.626;23.382;2023-05-25T06:12:06;94484.38;;;24.73;86.38
10006;BME280;5042;42.626;23.382;2023-05-25T06:14:33;94486.25;;;25.22;82.15
10006;BME280;5042;42.626;23.382;2023-05-25T06:17:00;94481.91;;;25.31;81.76
10006;BME280;5042;42.626;23.382;2023-05-25T06:19:26;94483.94;;;25.50;80.84
10006;BME280;5042;42.626;23.382;2023-05-25T06:21:53;94491.22;;;25.78;77.56
10006;BME280;5042;42.626;23.382;2023-05-25T06:24:21;94495.28;;;26.05;78.87
10006;BME280;5042;42.626;23.382;2023-05-25T06:26:48;94497.00;;;25.96;78.30
10006;BME280;5042;42.626;23.382;2023-05-25T06:29:15;94470.69;;;24.80;86.56
10006;BME280;5042;42.626;23.382;2023-05-25T06:31:41;94477.59;;;24.05;91.90
10006;BME280;5042;42.626;23.382;2023-05-25T06:34:08;94487.22;;;23.24;95.65
10006;BME280;5042;42.626;23.382;2023-05-25T06:36:35;94485.78;;;22.76;99.39
10006;BME280;5042;42.626;23.382;2023-05-25T06:39:02;94490.34;;;22.91;100.00
10006;BME280;5042;42.626;23.382;2023-05-25T06:41:30;94487.34;;;22.72;100.00
10006;BME280;5042;42.626;23.382;2023-05-25T06:43:57;94492.78;;;22.92;100.00
10006;BME280;5042;42.626;23.382;2023-05-25T06:46:24;94494.47;;;23.34;100.00
10006;BME280;5042;42.626;23.382;2023-05-25T06:48:51;94491.00;;;23.44;100.00
10006;BME280;5042;42.626;23.382;2023-05-25T06:51:17;94493.13;;;23.67;97.70
10006;BME280;5042;42.626;23.382;2023-05-25T06:53:44;94492.66;;;23.76;99.67
10006;BME280;5042;42.626;23.382;2023-05-25T06:56:11;94499.56;;;23.82;96.73
10006;BME280;5042;42.626;23.382;2023-05-25T06:58:39;94498.13;;;24.41;100.00
10006;BME280;5042;42.626;23.382;2023-05-25T07:01:06;94505.38;;;24.40;92.02
10006;BME280;5042;42.626;23.382;2023-05-25T07:03:33;94495.53;;;24.95;88.82
10006;BME280;5042;42.626;23.382;2023-05-25T07:06:00;94495.06;;;25.33;89.06
10006;BME280;5042;42.626;23.382;2023-05-25T07:08:27;94490.03;;;25.60;90.07
10006;BME280;5042;42.626;23.382;2023-05-25T07:10:54;94491.59;;;26.01;88.42
10006;BME280;5042;42.626;23.382;2023-05-25T07:13:20;94484.41;;;26.20;78.81
10006;BME280;5042;42.626;23.382;2023-05-25T07:15:49;94487.22;;;26.10;79.97
10006;BME280;5042;42.626;23.382;2023-05-25T07:18:17;94482.44;;;26.02;87.66
10006;BME280;5042;42.626;23.382;2023-05-25T07:20:43;94489.06;;;25.46;79.90
10006;BME280;5042;42.626;23.382;2023-05-25T07:23:11;94483.38;;;24.43;88.24
10006;BME280;5042;42.626;23.382;2023-05-25T07:25:38;94465.56;;;23.67;97.66
10006;BME280;5042;42.626;23.382;2023-05-25T07:28:05;94475.72;;;24.06;96.73
10006;BME280;5042;42.626;23.382;2023-05-25T07:30:31;94474.66;;;24.07;95.12
10006;BME280;5042;42.626;23.382;2023-05-25T07:33:00;94480.19;;;24.36;92.86
10006;BME280;5042;42.626;23.382;2023-05-25T07:35:27;94470.66;;;24.04;96.61
10006;BME280;5042;42.626;23.382;2023-05-25T07:37:57;94488.75;;;24.43;93.35
10006;BME280;5042;42.626;23.382;2023-05-25T07:40:24;94457.03;;;23.49;94.48
10006;BME280;5042;42.626;23.382;2023-05-25T07:42:51;94492.06;;;23.33;100.00
10006;BME280;5042;42.626;23.382;2023-05-25T07:45:17;94481.88;;;22.41;100.00
10006;BME280;5042;42.626;23.382;2023-05-25T07:47:45;94495.03;;;22.53;100.00
10006;BME280;5042;42.626;23.382;2023-05-25T07:50:14;94458.28;;;21.80;100.00
10006;BME280;5042;42.626;23.382;2023-05-25T07:52:41;94473.16;;;21.06;100.00
10006;BME280;5042;42.626;23.382;2023-05-25T07:55:09;94498.50;;;20.82;100.00
10006;BME280;5042;42.626;23.382;2023-05-25T07:57:35;94503.41;;;20.68;100.00
10006;BME280;5042;42.626;23.382;2023-05-25T08:00:03;94499.16;;;20.50;100.00
10006;BME280;5042;42.626;23.382;2023-05-25T08:02:32;94504.00;;;20.14;100.00
10006;BME280;5042;42.626;23.382;2023-05-25T08:04:58;94501.56;;;19.90;100.00
10006;BME280;5042;42.626;23.382;2023-05-25T08:07:31;94504.25;;;19.74;100.00
10006;BME280;5042;42.626;23.382;2023-05-25T08:09:58;94518.88;;;19.42;100.00
10006;BME280;5042;42.626;23.382;2023-05-25T08:12:25;94514.34;;;19.26;100.00
10006;BME280;5042;42.626;23.382;2023-05-25T08:14:52;94515.59;;;19.06;100.00
10006;BME280;5042;42.626;23.382;2023-05-25T08:17:19;94519.69;;;18.97;100.00
10006;BME280;5042;42.626;23.382;2023-05-25T08:19:46;94523.09;;;18.81;100.00
10006;BME280;5042;42.626;23.382;2023-05-25T08:22:13;94524.16;;;18.68;100.00
10006;BME280;5042;42.626;23.382;2023-05-25T08:24:41;94524.22;;;18.44;100.00
10006;BME280;5042;42.626;23.382;2023-05-25T08:27:08;94534.06;;;18.20;100.00
10006;BME280;5042;42.626;23.382;2023-05-25T08:29:34;94542.63;;;18.22;100.00
10006;BME280;5042;42.626;23.382;2023-05-25T08:32:01;94534.19;;;18.26;100.00
10006;BME280;5042;42.626;23.382;2023-05-25T08:34:28;94547.75;;;18.41;100.00
10006;BME280;5042;42.626;23.382;2023-05-25T08:36:55;94550.41;;;18.41;100.00
10006;BME280;5042;42.626;23.382;2023-05-25T08:39:22;94550.16;;;18.54;100.00
10006;BME280;5042;42.626;23.382;2023-05-25T08:41:50;94550.06;;;18.49;100.00
10006;BME280;5042;42.626;23.382;2023-05-25T08:44:17;94552.47;;;18.51;100.00
10006;BME280;5042;42.626;23.382;2023-05-25T08:46:46;94566.69;;;18.44;100.00
10006;BME280;5042;42.626;23.382;2023-05-25T08:49:13;94563.38;;;18.26;100.00
10006;BME280;5042;42.626;23.382;2023-05-25T08:51:41;94557.16;;;18.20;100.00
10006;BME280;5042;42.626;23.382;2023-05-25T08:54:09;94574.91;;;18.19;100.00
10006;BME280;5042;42.626;23.382;2023-05-25T08:56:41;94571.91;;;18.28;100.00
10006;BME280;5042;42.626;23.382;2023-05-25T08:59:25;94578.25;;;18.27;100.00
10006;BME280;5042;42.626;23.382;2023-05-25T09:01:56;94578.72;;;18.23;100.00
10006;BME280;5042;42.626;23.382;2023-05-25T09:04:27;94594.53;;;18.18;100.00
10006;BME280;5042;42.626;23.382;2023-05-25T09:06:55;94596.00;;;18.14;100.00
10006;BME280;5042;42.626;23.382;2023-05-25T09:09:23;94594.84;;;18.22;100.00
10006;BME280;5042;42.626;23.382;2023-05-25T09:11:50;94590.59;;;18.33;100.00
10006;BME280;5042;42.626;23.382;2023-05-25T09:14:18;94597.06;;;18.13;100.00
10006;BME280;5042;42.626;23.382;2023-05-25T09:16:45;94595.22;;;18.14;100.00
10006;BME280;5042;42.626;23.382;2023-05-25T09:19:12;94594.28;;;18.08;100.00
10006;BME280;5042;42.626;23.382;2023-05-25T09:21:39;94600.16;;;17.98;100.00
10006;BME280;5042;42.626;23.382;2023-05-25T09:24:07;94600.41;;;17.97;100.00
10006;BME280;5042;42.626;23.382;2023-05-25T09:26:34;94593.59;;;18.01;100.00
10006;BME280;5042;42.626;23.382;2023-05-25T09:29:01;94584.59;;;18.02;100.00
10006;BME280;5042;42.626;23.382;2023-05-25T09:31:30;94587.84;;;18.04;100.00
10006;BME280;5042;42.626;23.382;2023-05-25T09:33:57;94590.00;;;18.07;100.00
10006;BME280;5042;42.626;23.382;2023-05-25T09:36:25;94579.75;;;18.11;100.00
10006;BME280;5042;42.626;23.382;2023-05-25T09:38:52;94578.94;;;18.10;100.00
10006;BME280;5042;42.626;23.382;2023-05-25T09:41:20;94574.09;;;17.95;100.00
10006;BME280;5042;42.626;23.382;2023-05-25T09:43:47;94566.94;;;18.08;100.00
10006;BME280;5042;42.626;23.382;2023-05-25T09:46:14;94570.75;;;18.23;100.00
10006;BME280;5042;42.626;23.382;2023-05-25T09:48:42;94563.25;;;18.32;100.00
10006;BME280;5042;42.626;23.382;2023-05-25T09:51:10;94563.34;;;18.37;100.00
10006;BME280;5042;42.626;23.382;2023-05-25T09:56:22;94557.44;;;18.59;100.00
10006;BME280;5042;42.626;23.382;2023-05-25T09:58:50;94543.81;;;18.55;100.00
10006;BME280;5042;42.626;23.382;2023-05-25T10:01:17;94552.19;;;18.76;100.00
10006;BME280;5042;42.626;23.382;2023-05-25T10:03:48;94546.56;;;18.72;100.00
10006;BME280;5042;42.626;23.382;2023-05-25T10:06:15;94540.66;;;18.82;100.00
10006;BME280;5042;42.626;23.382;2023-05-25T10:08:43;94543.19;;;18.77;100.00
10006;BME280;5042;42.626;23.382;2023-05-25T10:11:12;94486.63;;;18.64;100.00
10006;BME280;5042;42.626;23.382;2023-05-25T10:13:39;94536.06;;;19.06;100.00
10006;BME280;5042;42.626;23.382;2023-05-25T10:16:08;94550.41;;;19.22;100.00
10006;BME280;5042;42.626;23.382;2023-05-25T10:18:41;94542.72;;;19.37;100.00
10006;BME280;5042;42.626;23.382;2023-05-25T10:21:12;94527.13;;;19.58;100.00
10006;BME280;5042;42.626;23.382;2023-05-25T10:23:44;94505.84;;;19.58;100.00
10006;BME280;5042;42.626;23.382;2023-05-25T10:26:17;94521.44;;;20.05;100.00
10006;BME280;5042;42.626;23.382;2023-05-25T10:28:44;94523.78;;;20.40;100.00
10006;BME280;5042;42.626;23.382;2023-05-25T10:31:13;94519.66;;;20.71;100.00
10006;BME280;5042;42.626;23.382;2023-05-25T10:33:42;94517.88;;;20.77;100.00
10006;BME280;5042;42.626;23.382;2023-05-25T10:36:11;94513.78;;;20.91;100.00
10006;BME280;5042;42.626;23.382;2023-05-25T10:38:39;94485.31;;;20.97;100.00
10006;BME280;5042;42.626;23.382;2023-05-25T10:41:08;94502.22;;;21.08;100.00
10006;BME280;5042;42.626;23.382;2023-05-25T10:43:35;94479.56;;;21.05;100.00
10006;BME280;5042;42.626;23.382;2023-05-25T10:46:03;94492.44;;;21.18;100.00
10006;BME280;5042;42.626;23.382;2023-05-25T10:48:37;94484.47;;;21.18;100.00
10006;BME280;5042;42.626;23.382;2023-05-25T10:51:04;94485.91;;;21.04;100.00
10006;BME280;5042;42.626;23.382;2023-05-25T10:53:32;94480.81;;;20.98;100.00
10006;BME280;5042;42.626;23.382;2023-05-25T10:56:01;94478.34;;;20.91;100.00
10006;BME280;5042;42.626;23.382;2023-05-25T10:58:29;94469.53;;;20.90;100.00
10006;BME280;5042;42.626;23.382;2023-05-25T11:00:57;94468.91;;;20.83;100.00
10006;BME280;5042;42.626;23.382;2023-05-25T11:07:03;94464.84;;;20.53;100.00
10006;BME280;5042;42.626;23.382;2023-05-25T11:09:40;94468.25;;;20.49;100.00
10006;BME280;5042;42.626;23.382;2023-05-25T11:12:12;94468.72;;;20.41;100.00
10006;BME280;5042;42.626;23.382;2023-05-25T11:14:43;94468.25;;;20.49;100.00
10006;BME280;5042;42.626;23.382;2023-05-25T11:17:12;94463.72;;;20.49;100.00
10006;BME280;5042;42.626;23.382;2023-05-25T11:19:43;94466.81;;;20.58;100.00
10006;BME280;5042;42.626;23.382;2023-05-25T11:22:14;94458.31;;;20.61;100.00
10006;BME280;5042;42.626;23.382;2023-05-25T11:24:43;94472.28;;;20.51;100.00
10006;BME280;5042;42.626;23.382;2023-05-25T11:27:11;94464.25;;;20.46;100.00
10006;BME280;5042;42.626;23.382;2023-05-25T11:29:38;94467.84;;;20.57;100.00
10006;BME280;5042;42.626;23.382;2023-05-25T11:32:11;94416.13;;;20.31;100.00
10006;BME280;5042;42.626;23.382;2023-05-25T11:34:38;94454.09;;;20.43;100.00
10006;BME280;5042;42.626;23.382;2023-05-25T11:37:11;94471.38;;;20.41;100.00
10006;BME280;5042;42.626;23.382;2023-05-25T11:39:40;94452.16;;;20.39;100.00
10006;BME280;5042;42.626;23.382;2023-05-25T11:42:09;94466.63;;;20.65;100.00
10006;BME280;5042;42.626;23.382;2023-05-25T11:44:36;94468.16;;;20.61;100.00
10006;BME280;5042;42.626;23.382;2023-05-25T11:47:05;94454.47;;;20.74;100.00
10006;BME280;5042;42.626;23.382;2023-05-25T11:49:34;94457.38;;;20.72;100.00
10006;BME280;5042;42.626;23.382;2023-05-25T11:52:05;94460.88;;;20.78;100.00
10006;BME280;5042;42.626;23.382;2023-05-25T11:54:32;94468.22;;;20.66;100.00
10006;BME280;5042;42.626;23.382;2023-05-25T11:57:00;94454.00;;;20.38;100.00
10006;BME280;5042;42.626;23.382;2023-05-25T11:59:28;94472.53;;;20.50;100.00
10006;BME280;5042;42.626;23.382;2023-05-25T12:01:56;94468.91;;;20.56;100.00
10006;BME280;5042;42.626;23.382;2023-05-25T12:04:23;94465.91;;;20.74;100.00
10006;BME280;5042;42.626;23.382;2023-05-25T12:06:50;94468.63;;;20.80;100.00
10006;BME280;5042;42.626;23.382;2023-05-25T12:09:20;94452.09;;;20.78;100.00
10006;BME280;5042;42.626;23.382;2023-05-25T12:11:48;94464.41;;;21.11;100.00
10006;BME280;5042;42.626;23.382;2023-05-25T12:14:14;94465.91;;;21.29;100.00
10006;BME280;5042;42.626;23.382;2023-05-25T12:16:43;94458.03;;;21.44;100.00
10006;BME280;5042;42.626;23.382;2023-05-25T12:19:11;94456.31;;;21.60;100.00
10006;BME280;5042;42.626;23.382;2023-05-25T12:21:39;94413.41;;;21.34;100.00
10006;BME280;5042;42.626;23.382;2023-05-25T12:24:06;94444.38;;;21.73;100.00
10006;BME280;5042;42.626;23.382;2023-05-25T12:26:33;94449.66;;;22.05;100.00
10006;BME280;5042;42.626;23.382;2023-05-25T12:29:02;94449.44;;;22.17;100.00
10006;BME280;5042;42.626;23.382;2023-05-25T12:31:30;94436.13;;;22.22;100.00
10006;BME280;5042;42.626;23.382;2023-05-25T12:34:07;94439.91;;;22.26;100.00
10006;BME280;5042;42.626;23.382;2023-05-25T12:36:42;94431.63;;;22.33;100.00
10006;BME280;5042;42.626;23.382;2023-05-25T12:39:10;94413.75;;;22.28;100.00
10006;BME280;5042;42.626;23.382;2023-05-25T12:41:45;94405.22;;;22.41;100.00
10006;BME280;5042;42.626;23.382;2023-05-25T12:44:19;94417.03;;;22.61;100.00
10006;BME280;5042;42.626;23.382;2023-05-25T12:46:47;94420.00;;;22.59;100.00
10006;BME280;5042;42.626;23.382;2023-05-25T12:49:29;94415.94;;;22.47;100.00
10006;BME280;5042;42.626;23.382;2023-05-25T12:51:57;94403.13;;;22.49;100.00
10006;BME280;5042;42.626;23.382;2023-05-25T12:54:34;94404.75;;;22.50;100.00
10006;BME280;5042;42.626;23.382;2023-05-25T12:57:02;94399.66;;;22.48;100.00
10006;BME280;5042;42.626;23.382;2023-05-25T12:59:30;94394.06;;;22.65;100.00
10006;BME280;5042;42.626;23.382;2023-05-25T13:01:57;94388.47;;;22.72;100.00